createdAt,value
2019-03-04T00:01:26.551Z,8.08
2019-03-04T00:03:57.440Z,8.04
2019-03-04T00:06:48.728Z,8.02
2019-03-04T00:09:19.850Z,7.98
2019-03-04T00:11:52.312Z,8.00
2019-03-04T00:14:29.149Z,8.12
2019-03-04T00:17:06.787Z,8.15
2019-03-04T00:19:37.677Z,8.16
2019-03-04T00:22:18.783Z,8.13
2019-03-04T00:24:49.643Z,8.15
2019-03-04T00:27:23.385Z,8.16
2019-03-04T00:29:54.314Z,8.18
2019-03-04T00:32:25.314Z,8.23
2019-03-04T00:34:56.184Z,8.16
2019-03-04T00:37:27.070Z,8.19
2019-03-04T00:39:58.430Z,8.23
2019-03-04T00:42:29.301Z,8.28
2019-03-04T00:45:00.293Z,8.27
2019-03-04T00:47:31.212Z,8.23
2019-03-04T00:50:02.062Z,8.26
2019-03-04T00:52:32.961Z,8.28
2019-03-04T00:55:05.391Z,8.25
2019-03-04T00:57:36.240Z,8.25
2019-03-04T01:00:08.939Z,8.21
2019-03-04T01:02:39.830Z,8.10
2019-03-04T01:05:10.724Z,8.07
2019-03-04T01:07:41.611Z,8.17
2019-03-04T01:10:13.976Z,8.17
2019-03-04T01:12:45.882Z,8.13
2019-03-04T01:15:18.372Z,8.13
2019-03-04T01:17:49.210Z,8.06
2019-03-04T01:20:21.535Z,8.08
2019-03-04T01:22:52.385Z,8.13
2019-03-04T01:25:23.274Z,8.02
2019-03-04T01:27:54.161Z,7.92
2019-03-04T01:30:25.155Z,7.86
2019-03-04T01:32:57.228Z,7.89
2019-03-04T01:35:28.076Z,7.90
2019-03-04T01:37:59.034Z,7.86
2019-03-04T01:40:30.993Z,7.85
2019-03-04T01:43:01.898Z,7.89
2019-03-04T01:45:32.841Z,7.87
2019-03-04T01:48:03.882Z,7.83
2019-03-04T01:50:34.774Z,7.71
2019-03-04T01:53:05.637Z,7.72
2019-03-04T01:55:36.530Z,7.80
2019-03-04T01:58:07.418Z,7.79
2019-03-04T02:00:38.272Z,7.78
2019-03-04T02:03:10.437Z,7.80
2019-03-04T02:05:41.361Z,7.82
2019-03-04T02:08:12.547Z,8.00
2019-03-04T02:10:43.445Z,7.92
2019-03-04T02:13:14.323Z,7.86
2019-03-04T02:15:45.143Z,7.97
2019-03-04T02:18:16.153Z,7.99
2019-03-04T02:20:47.258Z,8.10
2019-03-04T02:23:18.147Z,8.17
2019-03-04T02:26:28.737Z,8.24
2019-03-04T02:28:59.655Z,8.31
2019-03-04T02:31:30.517Z,8.31
2019-03-04T02:34:01.391Z,8.22
2019-03-04T02:36:32.311Z,8.22
2019-03-04T02:39:04.478Z,8.25
2019-03-04T02:41:36.909Z,8.29
2019-03-04T02:44:08.111Z,8.39
2019-03-04T02:46:39.009Z,8.37
2019-03-04T02:49:09.888Z,8.34
2019-03-04T02:51:40.809Z,8.25
2019-03-04T02:54:11.733Z,8.38
2019-03-04T02:56:42.622Z,8.38
2019-03-04T02:59:13.427Z,8.46
2019-03-04T03:01:44.224Z,8.43
2019-03-04T03:04:15.065Z,8.45
2019-03-04T03:06:50.205Z,8.46
2019-03-04T03:09:21.564Z,8.37
2019-03-04T03:11:52.535Z,8.33
2019-03-04T03:14:23.454Z,8.40
2019-03-04T03:16:54.335Z,8.44
2019-03-04T03:19:25.180Z,8.41
2019-03-04T03:21:56.057Z,8.44
2019-03-04T03:24:26.897Z,8.41
2019-03-04T03:26:57.769Z,8.39
2019-03-04T03:29:28.997Z,8.40
2019-03-04T03:31:59.860Z,8.38
2019-03-04T03:34:30.755Z,8.39
2019-03-04T03:37:02.908Z,8.40
2019-03-04T03:39:33.769Z,8.42
2019-03-04T03:42:07.725Z,8.40
2019-03-04T03:44:38.632Z,8.45
2019-03-04T03:47:10.402Z,8.58
2019-03-04T03:49:41.429Z,8.70
2019-03-04T03:52:12.497Z,8.70
2019-03-04T03:54:43.438Z,8.72
2019-03-04T03:57:14.318Z,8.60
2019-03-04T03:59:45.175Z,8.61
2019-03-04T04:02:16.045Z,8.58
2019-03-04T04:04:46.934Z,8.61
2019-03-04T04:07:18.285Z,8.57
2019-03-04T04:09:49.512Z,8.55
2019-03-04T04:12:20.439Z,8.53
2019-03-04T04:14:51.352Z,8.50
2019-03-04T04:17:22.234Z,8.40
2019-03-04T04:19:53.232Z,8.40
2019-03-04T04:22:24.334Z,8.46
2019-03-04T04:24:55.238Z,8.61
2019-03-04T04:27:26.146Z,8.67
2019-03-04T04:30:00.403Z,8.85
2019-03-04T04:32:32.025Z,8.91
2019-03-04T04:35:03.195Z,8.87
2019-03-04T04:37:34.059Z,8.91
2019-03-04T04:40:05.612Z,9.00
2019-03-04T04:42:36.468Z,9.02
2019-03-04T04:45:10.091Z,9.01
2019-03-04T04:47:40.948Z,9.07
2019-03-04T04:50:12.953Z,9.17
2019-03-04T04:52:43.816Z,9.20
2019-03-04T04:55:14.665Z,9.19
2019-03-04T04:57:45.495Z,9.19
2019-03-04T05:00:17.892Z,9.16
2019-03-04T05:02:48.823Z,9.21
2019-03-04T05:05:19.820Z,9.21
2019-03-04T05:07:50.755Z,9.22
2019-03-04T05:10:21.628Z,9.30
2019-03-04T05:12:52.512Z,9.28
2019-03-04T05:15:23.395Z,9.17
2019-03-04T05:17:54.249Z,9.21
2019-03-04T05:20:25.109Z,9.20
2019-03-04T05:22:56.726Z,9.21
2019-03-04T05:25:27.584Z,9.22
2019-03-04T05:27:58.419Z,9.24
2019-03-04T05:30:29.313Z,9.22
2019-03-04T05:33:00.265Z,9.21
2019-03-04T05:35:31.152Z,9.20
2019-03-04T05:38:02.104Z,9.20
2019-03-04T05:40:35.387Z,9.17
2019-03-04T05:43:06.264Z,9.09
2019-03-04T05:45:39.141Z,9.21
2019-03-04T05:48:15.866Z,9.21
2019-03-04T05:50:46.777Z,9.20
2019-03-04T05:53:17.646Z,9.23
2019-03-04T05:55:48.524Z,9.30
2019-03-04T05:58:20.415Z,9.26
2019-03-04T06:01:12.123Z,9.24
2019-03-04T06:03:43.125Z,9.23
2019-03-04T06:06:14.243Z,9.29
2019-03-04T06:08:45.003Z,9.33
2019-03-04T06:11:15.833Z,9.32
2019-03-04T06:13:46.625Z,9.28
2019-03-04T06:16:17.512Z,9.30
2019-03-04T06:18:48.388Z,9.38
2019-03-04T06:21:19.589Z,9.42
2019-03-04T06:23:50.471Z,9.53
2019-03-04T06:26:26.416Z,9.52
2019-03-04T06:28:57.321Z,9.56
2019-03-04T06:31:28.182Z,9.64
2019-03-04T06:34:00.710Z,9.76
2019-03-04T06:36:35.911Z,9.85
2019-03-04T06:39:09.023Z,9.87
2019-03-04T06:41:40.383Z,9.88
2019-03-04T06:44:11.209Z,9.92
2019-03-04T06:46:42.101Z,9.91
2019-03-04T06:49:12.981Z,9.91
2019-03-04T06:51:48.663Z,9.91
2019-03-04T06:54:52.060Z,9.89
2019-03-04T06:57:28.427Z,9.89
2019-03-04T07:00:23.221Z,9.90
2019-03-04T07:02:56.851Z,9.88
2019-03-04T07:05:51.009Z,9.93
2019-03-04T07:09:12.124Z,9.96
2019-03-04T07:11:52.792Z,10.03
2019-03-04T07:14:23.634Z,10.12
2019-03-04T07:17:01.139Z,10.22
2019-03-04T07:19:35.974Z,10.27
2019-03-04T07:22:11.340Z,10.32
2019-03-04T07:24:42.607Z,10.48
2019-03-04T07:27:13.910Z,10.66
2019-03-04T07:29:44.828Z,10.78
2019-03-04T07:32:18.057Z,10.84
2019-03-04T07:34:59.128Z,10.89
2019-03-04T07:37:31.523Z,10.88
2019-03-04T07:40:04.693Z,10.91
2019-03-04T07:42:42.075Z,10.91
2019-03-04T07:45:15.067Z,10.92
2019-03-04T07:47:48.912Z,10.92
2019-03-04T07:50:19.869Z,10.93
2019-03-04T07:52:57.765Z,10.97
2019-03-04T07:55:30.034Z,11.03
2019-03-04T07:58:07.451Z,11.07
2019-03-04T08:00:38.359Z,11.10
2019-03-04T08:03:09.264Z,11.16
2019-03-04T08:05:40.484Z,11.19
2019-03-04T08:08:11.391Z,11.25
2019-03-04T08:11:18.786Z,11.36
2019-03-04T08:17:04.044Z,11.44
2019-03-04T08:19:34.931Z,11.42
2019-03-04T08:22:07.074Z,11.41
2019-03-04T08:24:38.282Z,11.42
2019-03-04T08:27:09.287Z,11.42
2019-03-04T08:29:40.474Z,11.50
2019-03-04T08:32:13.437Z,11.69
2019-03-04T08:34:44.321Z,11.89
2019-03-04T08:37:19.457Z,11.96
2019-03-04T08:39:50.821Z,12.07
2019-03-04T08:42:24.190Z,12.17
2019-03-04T08:44:58.241Z,12.31
2019-03-04T08:47:29.365Z,12.46
2019-03-04T08:50:03.077Z,12.60
2019-03-04T08:52:34.358Z,12.66
2019-03-04T08:55:05.577Z,12.69
2019-03-04T08:57:36.493Z,12.65
2019-03-04T09:00:14.021Z,12.59
2019-03-04T09:02:46.206Z,12.49
2019-03-04T09:05:17.142Z,12.40
2019-03-04T09:07:48.389Z,12.31
2019-03-04T09:10:24.292Z,12.20
2019-03-04T09:12:55.168Z,12.23
2019-03-04T09:15:33.415Z,12.35
2019-03-04T09:18:06.754Z,12.57
2019-03-04T09:20:40.748Z,12.68
2019-03-04T09:23:11.626Z,12.80
2019-03-04T09:25:51.796Z,12.98
2019-03-04T09:28:27.454Z,13.13
2019-03-04T09:31:00.148Z,13.15
2019-03-04T09:33:32.231Z,13.22
2019-03-04T09:36:13.870Z,13.19
2019-03-04T09:38:47.851Z,13.22
2019-03-04T09:41:19.334Z,13.21
2019-03-04T09:43:50.191Z,13.12
2019-03-04T09:46:29.979Z,13.03
2019-03-04T09:49:03.317Z,12.91
2019-03-04T09:51:44.269Z,12.77
2019-03-04T09:54:18.281Z,12.59
2019-03-04T09:56:53.756Z,12.37
2019-03-04T09:59:24.633Z,12.26
2019-03-04T10:02:06.560Z,12.20
2019-03-04T10:05:22.924Z,12.08
2019-03-04T10:08:32.863Z,11.97
2019-03-04T10:11:49.267Z,11.84
2019-03-04T10:15:10.247Z,11.75
2019-03-04T10:18:19.843Z,11.72
2019-03-04T10:21:25.238Z,11.71
2019-03-04T10:24:14.771Z,11.69
2019-03-04T10:27:28.643Z,11.60
2019-03-04T10:30:47.399Z,11.56
2019-03-04T10:34:08.794Z,11.47
2019-03-04T10:37:24.776Z,11.44
2019-03-04T10:40:31.091Z,11.60
2019-03-04T10:43:40.412Z,11.62
2019-03-04T10:47:17.847Z,11.57
2019-03-04T10:49:49.511Z,11.54
2019-03-04T10:52:20.585Z,11.59
2019-03-04T10:54:55.451Z,12.09
2019-03-04T10:57:32.682Z,12.26
2019-03-04T11:00:05.672Z,12.58
2019-03-04T11:02:38.562Z,12.86
2019-03-04T11:05:38.570Z,12.91
2019-03-04T11:08:38.927Z,12.61
2019-03-04T11:11:29.421Z,12.49
2019-03-04T11:13:54.767Z,12.57
2019-03-04T11:16:35.909Z,12.46
2019-03-04T11:19:08.051Z,12.29
2019-03-04T11:21:54.065Z,12.09
2019-03-04T11:24:43.503Z,12.10
2019-03-04T11:27:21.869Z,12.31
2019-03-04T11:29:58.917Z,12.36
2019-03-04T11:32:35.149Z,12.39
2019-03-04T11:35:09.278Z,12.37
2019-03-04T11:37:45.156Z,12.31
2019-03-04T11:40:34.301Z,12.30
2019-03-04T11:43:05.670Z,12.37
2019-03-04T11:45:44.320Z,12.61
2019-03-04T11:48:55.948Z,12.79
2019-03-04T11:51:33.852Z,12.95
2019-03-04T11:54:13.526Z,12.96
2019-03-04T11:56:50.321Z,12.85
2019-03-04T11:59:25.013Z,12.83
2019-03-04T12:02:08.681Z,12.72
2019-03-04T12:04:42.100Z,12.63
2019-03-04T12:07:22.778Z,12.61
2019-03-04T12:09:58.860Z,12.49
2019-03-04T12:12:29.779Z,12.36
2019-03-04T12:15:02.861Z,12.38
2019-03-04T12:17:41.392Z,12.29
2019-03-04T12:20:17.890Z,12.22
2019-03-04T12:22:55.332Z,12.13
2019-03-04T12:25:43.743Z,12.12
2019-03-04T12:28:12.676Z,12.14
2019-03-04T12:30:51.776Z,12.12
2019-03-04T12:33:47.577Z,12.00
2019-03-04T12:36:18.394Z,11.87
2019-03-04T12:39:09.415Z,11.67
2019-03-04T12:41:46.176Z,11.54
2019-03-04T12:44:21.324Z,11.38
2019-03-04T12:47:34.137Z,11.33
2019-03-04T12:50:10.410Z,11.30
2019-03-04T12:52:49.090Z,11.33
2019-03-04T12:55:35.061Z,11.33
2019-03-04T13:02:11.006Z,11.34
2019-03-04T13:05:11.168Z,11.36
2019-03-04T13:08:00.911Z,11.35
2019-03-04T13:10:35.181Z,11.35
2019-03-04T13:13:14.725Z,11.32
2019-03-04T13:16:03.066Z,11.32
2019-03-04T13:18:45.097Z,11.33
2019-03-04T13:21:23.595Z,11.32
2019-03-04T13:24:11.697Z,11.23
2019-03-04T13:26:51.528Z,11.20
2019-03-04T13:29:33.912Z,11.17
2019-03-04T13:32:07.204Z,11.13
2019-03-04T13:34:42.976Z,11.10
2019-03-04T13:37:23.222Z,11.03
2019-03-04T13:39:58.084Z,10.99
2019-03-04T13:42:33.633Z,10.96
2019-03-04T13:45:12.952Z,10.94
2019-03-04T13:48:02.821Z,10.90
2019-03-04T13:50:47.113Z,10.82
2019-03-04T13:53:31.188Z,10.76
2019-03-04T13:56:01.687Z,10.67
2019-03-04T13:58:43.329Z,10.62
2019-03-04T14:01:18.534Z,10.58
2019-03-04T14:03:54.790Z,10.51
2019-03-04T14:06:37.818Z,10.47
2019-03-04T14:09:15.267Z,10.46
2019-03-04T14:11:53.880Z,10.45
2019-03-04T14:14:29.294Z,10.46
2019-03-04T14:17:05.918Z,10.46
2019-03-04T14:19:44.430Z,10.40
2019-03-04T14:22:18.219Z,10.35
2019-03-04T14:24:57.709Z,10.33
2019-03-04T14:27:25.136Z,10.29
2019-03-04T14:30:03.418Z,10.20
2019-03-04T14:32:44.936Z,10.12
2019-03-04T14:35:19.315Z,10.05
2019-03-04T14:37:58.351Z,10.02
2019-03-04T14:40:41.243Z,10.01
2019-03-04T14:43:17.204Z,9.99
2019-03-04T14:45:54.370Z,9.94
2019-03-04T14:48:32.015Z,9.91
2019-03-04T14:51:25.485Z,9.89
2019-03-04T14:53:56.599Z,9.88
2019-03-04T14:56:27.556Z,9.84
2019-03-04T14:59:28.629Z,9.81
2019-03-04T15:02:02.437Z,9.80
2019-03-04T15:04:35.966Z,9.75
2019-03-04T15:07:14.553Z,9.69
2019-03-04T15:09:52.353Z,9.69
2019-03-04T15:12:28.763Z,9.71
2019-03-04T15:15:05.358Z,9.76
2019-03-04T15:17:39.444Z,9.88
2019-03-04T15:20:16.183Z,9.98
2019-03-04T15:22:47.287Z,10.02
2019-03-04T15:25:25.256Z,10.00
2019-03-04T15:28:08.826Z,9.90
2019-03-04T15:30:45.043Z,9.83
2019-03-04T15:33:18.809Z,9.73
2019-03-04T15:35:52.020Z,9.67
2019-03-04T15:38:24.755Z,9.58
2019-03-04T15:40:55.633Z,9.52
2019-03-04T15:43:27.679Z,9.48
2019-03-04T15:46:00.111Z,9.43
2019-03-04T15:48:30.980Z,9.37
2019-03-04T15:51:01.822Z,9.34
2019-03-04T15:53:35.363Z,9.23
2019-03-04T15:56:06.288Z,9.14
2019-03-04T15:58:38.022Z,9.00
2019-03-04T16:01:13.601Z,8.86
2019-03-04T16:03:49.754Z,8.74
2019-03-04T16:06:24.924Z,8.56
2019-03-04T16:08:55.913Z,8.45
2019-03-04T16:11:27.534Z,8.29
2019-03-04T16:13:59.895Z,8.17
2019-03-04T16:16:30.737Z,8.09
2019-03-04T16:19:01.555Z,8.03
2019-03-04T16:21:32.512Z,7.99
2019-03-04T16:24:03.597Z,7.96
2019-03-04T16:26:38.969Z,7.91
2019-03-04T16:29:10.201Z,7.88
2019-03-04T16:31:51.267Z,7.83
2019-03-04T16:34:23.959Z,7.83
2019-03-04T16:36:56.389Z,7.82
2019-03-04T16:39:32.857Z,7.82
2019-03-04T16:42:08.642Z,7.83
2019-03-04T16:44:40.120Z,7.81
2019-03-04T16:47:12.251Z,7.81
2019-03-04T16:49:45.594Z,7.70
2019-03-04T16:52:18.599Z,7.33
2019-03-04T16:54:49.551Z,6.78
2019-03-04T16:57:20.817Z,6.46
2019-03-04T16:59:51.657Z,6.40
2019-03-04T17:02:28.574Z,6.31
2019-03-04T17:04:59.476Z,6.25
2019-03-04T17:07:36.162Z,6.17
2019-03-04T17:10:25.913Z,6.20
2019-03-04T17:13:04.165Z,6.18
2019-03-04T17:15:47.289Z,6.22
2019-03-04T17:18:24.205Z,6.21
2019-03-04T17:20:56.660Z,6.21
2019-03-04T17:23:34.856Z,6.23
2019-03-04T17:26:07.135Z,6.26
2019-03-04T17:28:41.149Z,6.35
2019-03-04T17:31:39.361Z,6.45
2019-03-04T17:34:16.615Z,6.45
2019-03-04T17:36:48.940Z,6.47
2019-03-04T17:39:21.694Z,6.46
2019-03-04T17:41:52.677Z,6.50
2019-03-04T17:44:27.345Z,6.57
2019-03-04T17:47:03.711Z,6.59
2019-03-04T17:49:37.383Z,6.62
2019-03-04T17:52:12.741Z,6.69
2019-03-04T17:54:51.267Z,6.76
2019-03-04T17:57:24.818Z,6.79
2019-03-04T18:00:00.343Z,6.85
2019-03-04T18:02:32.932Z,6.88
2019-03-04T18:05:06.671Z,6.81
2019-03-04T18:07:38.015Z,6.77
2019-03-04T18:10:11.597Z,6.74
2019-03-04T18:12:42.469Z,6.72
2019-03-04T18:15:19.527Z,6.66
2019-03-04T18:17:53.112Z,6.61
2019-03-04T18:20:33.990Z,6.43
2019-03-04T18:23:03.476Z,6.08
2019-03-04T18:25:46.125Z,5.76
2019-03-04T18:28:57.288Z,5.52
2019-03-04T18:31:42.427Z,5.40
2019-03-04T18:34:54.507Z,5.31
2019-03-04T18:38:02.837Z,5.14
2019-03-04T18:41:16.168Z,4.98
2019-03-04T18:44:28.405Z,4.63
2019-03-04T18:47:33.948Z,4.48
2019-03-04T18:50:05.403Z,4.40
2019-03-04T18:52:36.595Z,4.31
2019-03-04T18:55:24.687Z,4.31
2019-03-04T18:57:57.526Z,4.29
2019-03-04T19:01:08.921Z,4.21
2019-03-04T19:03:41.831Z,4.09
2019-03-04T19:06:13.492Z,4.00
2019-03-04T19:08:53.261Z,3.97
2019-03-04T19:11:53.635Z,3.90
2019-03-04T19:14:27.745Z,3.84
2019-03-04T19:16:59.422Z,3.70
2019-03-04T19:19:33.454Z,3.66
2019-03-04T19:22:14.231Z,3.68
2019-03-04T19:24:44.944Z,3.60
2019-03-04T19:27:16.157Z,3.55
2019-03-04T19:29:54.217Z,3.43
2019-03-04T19:33:07.795Z,3.34
2019-03-04T19:35:39.383Z,3.23
2019-03-04T19:38:19.755Z,3.19
2019-03-04T19:41:06.806Z,3.19
2019-03-04T19:43:44.607Z,3.11
2019-03-04T19:46:27.125Z,3.07
2019-03-04T19:49:18.382Z,3.00
2019-03-04T19:51:52.646Z,2.94
2019-03-04T19:54:25.526Z,2.89
2019-03-04T19:57:13.014Z,2.86
2019-03-04T19:59:47.637Z,2.91
2019-03-04T20:02:21.001Z,2.97
2019-03-04T20:04:54.516Z,2.91
2019-03-04T20:07:29.273Z,2.86
2019-03-04T20:10:04.223Z,2.83
2019-03-04T20:12:47.407Z,2.79
2019-03-04T20:15:26.061Z,2.76
2019-03-04T20:17:57.200Z,2.74
2019-03-04T20:20:29.729Z,2.68
2019-03-04T20:23:02.076Z,2.62
2019-03-04T20:25:36.295Z,2.56
2019-03-04T20:28:07.251Z,2.59
2019-03-04T20:30:43.118Z,2.58
2019-03-04T20:33:15.456Z,2.55
2019-03-04T20:35:47.516Z,2.52
2019-03-04T20:38:19.955Z,2.52
2019-03-04T20:40:54.183Z,2.48
2019-03-04T20:43:28.434Z,2.46
2019-03-04T20:46:05.705Z,2.44
2019-03-04T20:48:41.192Z,2.46
2019-03-04T20:51:13.575Z,2.50
2019-03-04T20:53:45.278Z,2.52
2019-03-04T20:56:23.964Z,2.56
2019-03-04T20:58:55.041Z,2.57
2019-03-04T21:01:33.984Z,2.52
2019-03-04T21:04:05.282Z,2.51
2019-03-04T21:06:37.867Z,2.54
2019-03-04T21:09:13.938Z,2.49
2019-03-04T21:11:45.418Z,2.45
2019-03-04T21:14:17.011Z,2.44
2019-03-04T21:16:50.170Z,2.43
2019-03-04T21:19:23.627Z,2.47
2019-03-04T21:21:54.865Z,2.49
2019-03-04T21:24:26.105Z,2.51
2019-03-04T21:27:04.930Z,2.57
2019-03-04T21:30:27.395Z,2.58
2019-03-04T21:33:08.613Z,2.64
2019-03-04T21:36:36.791Z,2.69
2019-03-04T21:39:08.215Z,2.72
2019-03-04T21:42:11.517Z,2.78
2019-03-04T21:45:11.401Z,2.79
2019-03-04T21:47:50.069Z,2.82
2019-03-04T21:50:25.565Z,2.82
2019-03-04T21:53:23.061Z,2.84
2019-03-04T21:56:02.811Z,2.86
2019-03-04T21:58:40.743Z,2.91
2019-03-04T22:01:20.631Z,2.90
2019-03-04T22:03:53.385Z,2.88
2019-03-04T22:06:24.882Z,2.87
2019-03-04T22:09:01.918Z,2.91
2019-03-04T22:11:37.477Z,2.88
2019-03-04T22:14:12.874Z,2.88
2019-03-04T22:16:44.591Z,2.95
2019-03-04T22:19:19.964Z,2.98
2019-03-04T22:21:56.256Z,2.99
2019-03-04T22:24:27.469Z,3.00
2019-03-04T22:27:01.348Z,3.01
2019-03-04T22:29:35.040Z,2.99
2019-03-04T22:32:09.291Z,2.92
2019-03-04T22:34:44.338Z,2.96
2019-03-04T22:37:19.196Z,3.02
2019-03-04T22:39:52.793Z,3.09
2019-03-04T22:42:34.985Z,3.11
2019-03-04T22:45:10.026Z,3.14
2019-03-04T22:47:40.891Z,3.17
2019-03-04T22:50:15.893Z,3.19
2019-03-04T22:52:47.939Z,3.18
2019-03-04T22:55:24.404Z,3.16
2019-03-04T22:57:57.107Z,3.17
2019-03-04T23:01:23.581Z,3.16
2019-03-04T23:04:05.632Z,3.15
2019-03-04T23:06:36.783Z,3.13
2019-03-04T23:09:09.807Z,3.11
2019-03-04T23:11:46.277Z,3.12
2019-03-04T23:14:40.881Z,3.12
2019-03-04T23:17:06.958Z,3.07
2019-03-04T23:19:40.753Z,3.03
2019-03-04T23:22:11.666Z,2.98
2019-03-04T23:24:45.608Z,2.93
2019-03-04T23:27:16.490Z,2.95
2019-03-04T23:29:47.402Z,2.92
2019-03-04T23:32:18.264Z,2.90
2019-03-04T23:34:49.785Z,2.94
2019-03-04T23:37:20.674Z,2.95
2019-03-04T23:39:51.553Z,2.90
2019-03-04T23:42:27.627Z,2.91
2019-03-04T23:44:58.492Z,2.95
2019-03-04T23:47:29.491Z,2.96
2019-03-04T23:50:18.200Z,2.91
2019-03-04T23:52:49.040Z,2.89
2019-03-04T23:55:19.914Z,2.93
2019-03-04T23:57:54.912Z,2.94
